18ème Rallye National Terre de Langres
Championnat de France des Rallyes sur Terre
1 5 TRON Noel/OBRECHT Justine Citroën DS3 WRC A 8W 15:03,8 1
2 4 MAURIN Julien/URAL Olivier Citroën DS3 WRC A 8W 15:06,4 +00:02,6 +00:02,6 1
3 2 DURBEC Thibault/RENUCCI Jacques-Julien Citroën DS3 WRC A 8W 15:09,9 +00:06,1 +00:03,5 1
4 3 CUOQ Jean-Marie/GRANDEMANGE Marielle Citroën C4 WRC FA 8W 15:19,3 +00:15,5 +00:09,4 1
5 9 AMOURETTE Marc/MARIE Gwenola Citroën DS3 R5 R 5 15:47,0 +00:43,2 +00:27,7
6 7 FERAUD Cyrille/DUCHEMIN Aymeric Citroën C4 WRC FA 8W 16:02,2 +00:58,4 +00:15,2 1
7 6 BAUD Lionel/SERRE Pascal Ford Focus WRC FA 8W 16:03,6 +00:59,8 +00:01,4 1
8 1 BERFA Jordan/AUGUSTIN Damien HUYNDAI i20 R5 R 5 16:07,2 +01:03,4 +00:03,6 1
9 8 MORDACQ Arnaud/RATIER Marie-Noelle Mitsubishi Lancer Evo9 FN 4 16:36,0 +01:32,2 +00:28,8 1
10 67 MARCHAL Eddy/JOLE Damien Citroën Saxo T4 FA 6K 16:44,3 +01:40,5 +00:08,3 1
11 14 CECCHI Philippe/LETOURNEAU Lara Citroën DS3 R5 R 5 17:10,6 +02:06,8 +00:26,3
12 16 PELUTTIERO Thibaud/REICHENECKER Josh Mitsubishi Lancer EvoX R 4 17:28,2 +02:24,4 +00:17,6 1
13 25 MOREL Jean-Luc/GIDEL Philippe Subaru Impreza WRX FN 4 17:33,9 +02:30,1 +00:05,7
14 31 COLNEY Thierry/FORTMANN Patrick Citroën DS3 R3 R 3 17:34,2 +02:30,4 +00:00,3 1 2
15 19 CHAYNES Gary/TRIBOUT Christian Mitsubishi Lancer Evo6 FA 8 17:36,8 +02:33,0 +00:02,6 1
16 17 CLARETY Jérôme/LACOSTE Vincent Mitsubishi Lancer EvoX R 4 17:40,6 +02:36,8 +00:03,8
17 23 BENIER Thomas/PRASSE Cédric Subaru Impreza WRX N 4 17:44,3 +02:40,5 +00:03,7 1
18 66 CACHOD Sylvain/POURCELOT Aurélien Citroën C2 R2 R 2 17:49,9 +02:46,1 +00:05,6
19 42 FRANCESCHI Jean-Baptiste/COURBON Romain Ford Fiesta R2J R 2 17:51,2 +02:47,4 +00:01,3 4
20 26 DELOY David/OGIER Cédric Mitsubishi Lancer EvoX N 4 17:57,8 +02:54,0 +00:06,6
21 62 CHALAL Theo/LE FLOCH Franck Ford Fiesta R2J R 2 18:00,3 +02:56,5 +00:02,5 4
22 54 MARGAILLAN Hugo/POUJOL Sébastien Ford Fiesta R2J R 2 18:08,5 +03:04,7 +00:08,2 4
23 61 CORNU Alexandre/FASSOLA Thibault Ford Fiesta R2J R 2 18:09,5 +03:05,7 +00:01,0 4
24 65 FRANCESCHI Mathieu/BELHACENE Matthieu Citroën C2 R2 R 2 18:11,6 +03:07,8 +00:02,1
25 18 SALIN Daniel/SALIN Brigitte Subaru Impreza WRX R 4 18:12,1 +03:08,3 +00:00,5
26 57 CARTIER Victor/CRAEN Fabien Ford Fiesta R2J R 2 18:14,1 +03:10,3 +00:02,0 4
27 63 MOLLARD Alexandre/EYMIN Nicolas Peugeot 208 VTI R 2 18:14,6 +03:10,8 +00:00,5
28 43 DI FANTE Romain/TEMPIER Romain Ford Fiesta R2J R 2 18:19,6 +03:15,8 +00:05,0 4
29 78 RAYNAUD Gabriel/JULIEN William Seat Ibiza GTI F2 14 18:21,5 +03:17,7 +00:01,9 1 2
30 30 ASTIER Loïc/DECLERCK Loïc Citroën DS3 R3 R 3 18:23,6 +03:19,8 +00:02,1 1 2
31 64 GUIBERT Jean-Christophe/GRACIAL Laurent Ford Fiesta R2 R 2 18:25,4 +03:21,6 +00:01,8
32 48 JOUINES Jean/CHABBERT Martin Ford Fiesta R2J R 2 18:27,1 +03:23,3 +00:01,7 4
33 69 QUARROZ Damien/VOLPI Cécile Citroën Saxo T4 FA 6K 18:32,5 +03:28,7 +00:05,4
34 51 MOUSTIN Doriann/DESNOYER Alexia Ford Fiesta R2J R 2 18:36,2 +03:32,4 +00:03,7 4
35 55 PONTAL Julien/BARRAL Florian Ford Fiesta R2J R 2 18:39,5 +03:35,7 +00:03,3 4
36 20 GAIDOZ Hervé/RICHARD François Subaru Impreza WRX FA 8 18:41,7 +03:37,9 +00:02,2 1
37 41 SABATIER Florent/SANTIAGO Thomas Peugeot 106 S16 FA 6 18:45,0 +03:41,2 +00:03,3 1 2
38 49 GOUPIL Jocerand/CIANFARANI Anthoni Ford Fiesta R2J R 2 18:47,0 +03:43,2 +00:02,0 4
39 52 GIUSTI Igor/DINI Gilbert Ford Fiesta R2J R 2 18:48,5 +03:44,7 +00:01,5 4
40 85 GERMAIN Alex/POIROT Edgard Peugeot 205 GTI F2 13 18:49,0 +03:45,2 +00:00,5
41 88 BRISSON Eddy/MASSON Pascal Suzuki Swift Sport FN 2 18:50,6 +03:46,8 +00:01,6
42 68 PAILLER Julien/HENQUINET Sébastien Citroën Saxo T4 FA 6K 18:53,7 +03:49,9 +00:03,1
43 24 MARTI Christian/LAVIALE Jean-Marc Mitsubishi Lancer Evo9 FN 4 18:55,1 +03:51,3 +00:01,4 1
44 71 COLOMBE Geoffroy/FABREGUE Régis Peugeot 206 XS FA 6K 18:58,1 +03:54,3 +00:03,0
45 90 BERTHOD Loïc/JOSSERAND Alexis Citroën Saxo VTS FN 2 19:00,9 +03:57,1 +00:02,8
46 45 FOURMAUX Adrien/FOURMAUX Maxime Ford Fiesta R2J R 2 19:04,2 +04:00,4 +00:03,3 4
47 12 BESSON Jean-Pascal/ROISSAC Patrice Skoda Fabia R5 R 5 19:05,0 +04:01,2 +00:00,8 1
48 47 CHANTRIAUX Audric/PEREZ Laëtitia Ford Fiesta R2J R 2 19:05,4 +04:01,6 +00:00,4 4
49 44 BOULENC Benjamin/DOS REIS Sébastien Ford Fiesta R2J R 2 19:06,0 +04:02,2 +00:00,6 4
50 84 FOURNIER Nicolas/VATTEAU Kévin Peugeot 206 XS F2 13 19:09,3 +04:05,5 +00:03,3 1 2
51 32 JOUINES Rémi/MAHEO Arnaud Peugeot 207 Rc R 3 19:11,4 +04:07,6 +00:02,1 1 2
52 11 FRAU Richard/GAREL Romain Ford Fiesta R5 R 5 19:18,9 +04:15,1 +00:07,5 1
53 74 TATIN Xavier/BAUMET Eddie Peugeot 306 S16 FA 7 19:19,6 +04:15,8 +00:00,7
54 53 GANDELLI David/BIAGETTI Loan Ford Fiesta R2J R 2 19:21,3 +04:17,5 +00:01,7 4
55 60 EMANUEL Maxence/DALMASSO Pauline Ford Fiesta R2J R 2 19:27,4 +04:23,6 +00:06,1 4
56 75 LAGIER Fabrice/DUPONT Romuald Peugeot 306 S16 FA 7 19:31,6 +04:27,8 +00:04,2
57 33 BOUCHET Guillaume/BLAMPEY Fabien Peugeot 207 Rc R 3 19:36,4 +04:32,6 +00:04,8
58 82 DUCLAUX Julien/AMALBERTI Cédric Peugeot 206 Rc FN 3 19:42,0 +04:38,2 +00:05,6
59 50 CURIOZ Benjamin/BEERENS Pierre Ford Fiesta R2J R 2 19:46,3 +04:42,5 +00:04,3 4
60 94 VUITTENEZ Victorien/COTE COLISSON Maxime Peugeot 106 XSI FN 1 19:49,7 +04:45,9 +00:03,4
61 80 REYNAUD Yvan/SCHWARTZ Eric Opel Manta GTE F2 14 19:50,7 +04:46,9 +00:01,0
62 87 MOUGIN Jules/ROUMETTE Clemence Peugeot 106 Rallye FA 5 19:58,9 +04:55,1 +00:08,2
63 28 VIALLE Lilian/GHIRARDELLO Manuel Renault Clio R3 R 3 20:05,1 +05:01,3 +00:06,2 1 2
64 29 DAZY Jean-Pierre/LOIZEAUX Didier Renault Clio R3 R 3 20:13,1 +05:09,3 +00:08,0 1 2
65 70 BRENIAUX Sébastien/JACQUES Anthony Peugeot 206 XS FA 6K 20:16,1 +05:12,3 +00:03,0
66 27 PRIOLO Laurent/PRIOLO Cindy Mitsubishi Lancer Evo9 FN 4 20:27,6 +05:23,8 +00:11,5
67 56 VIAROUGE David/BENZAL Aurélien Ford Fiesta R2J R 2 20:35,5 +05:31,7 +00:07,9 4
68 89 DOLGOPYATOFF Damien/PERRIN Christelle Suzuki Swift Sport FN 2 20:45,9 +05:42,1 +00:10,4
69 79 CLEMENT Frédéric/COSTES François Peugeot 206 Rc F2 14 20:46,8 +05:43,0 +00:00,9 1 2
70 81 VIDAL Marc/MONTARON Loïc Peugeot 309 GTI 16S F2 14 21:12,2 +06:08,4 +00:25,4
71 77 STUDER Maude/STUDER Sébastien Peugeot 206 GT FA 7 21:36,9 +06:33,1 +00:24,7
72 58 VIANO Allison/CHOL Cecilia Ford Fiesta R2J R 2 21:40,7 +06:36,9 +00:03,8 4
73 72 FETY Fabrice/ROLLION Thomas Peugeot 206 XS FA 6K 21:47,9 +06:44,1 +00:07,2
74 76 VERRY Vanessa/OUVRY Eleonore Peugeot 206 Rc FA 7 21:52,2 +06:48,4 +00:04,3
75 86 MAUVAIS Michel/PY Jean-Michel Peugeot 205 Rallye FA 5 22:19,6 +07:15,8 +00:27,4
76 95 FAUR Yoann/MASSON Kévin Peugeot 205 Rallye FN 1 22:23,3 +07:19,5 +00:03,7
77 92 FRANCOIS Léa/FRANCOIS Solene Peugeot 106 S16 FN 2 22:46,1 +07:42,3 +00:22,8
78 22 GLEY Jean-Pierre/JEUDY Nicolas B.M.W. 325 iX FA 8 22:48,1 +07:44,3 +00:02,0
79 91 DI PAOLO Alain/MORILLON Frederika Peugeot 106 S16 FN 2 23:51,4 +08:47,6 +01:03,3
80 93 BRAQUET Jean-Baptiste/BRAQUET Elyse Peugeot 106 XSI FN 1 24:18,8 +09:15,0 +00:27,4
81 15 FALCO Jean-Marc/BOUERI Jonathan Mitsubishi Lancer Evo9 R 4 25:46,4 +10:42,6 +01:27,6 1
82 39 MASCLAUX Arnaud/MOULIN Alexandre Renault Clio Ragnotti F2 14 28:47,4 +13:43,6 +03:01,0 1 2
83 40 VITAL Jean-Pierre/YVERNAULT Eric Citroën Saxo VTS F2 13 29:14,9 +14:11,1 +00:27,5 1 2
84 38 JULIA David/AUBERTIN Ludovic Peugeot 206 Rc F2 14 29:36,1 +14:32,3 +00:21,2 1 2
85 37 GUINCHARD Emmanuel/CHATELAIN Mickaël Peugeot 207 Rc R 3 30:34,7 +15:30,9 +00:58,6
86 35 FRANCE Julien/MAZARGUIL Philippe Citroën DS3 R3 R 3 30:46,3 +15:42,5 +00:11,6
87 73 SOUFFEZ Frédéric/PRUVOST Astrid Peugeot 206 Rc FA 7 30:49,3 +15:45,5 +00:03,0 1 2
88 36 SPART Patrick/CATTIN Charline Peugeot 207 Rc R 3 32:31,6 +17:27,8 +01:42,3
Clt Equipage Voiture Gr/Cl Temps Ecart 1er Ecart préc. Catégories
Commentaires: © PatricK Soft  
(Temps forfaitaires=couleur bleue)
Classés:88

Epreuve: Groupe: Catégorie:

 
Retour
Classement après ES2-Saints-Geosmes - Noidant-le-Rocheux (10.000 km)